sensor_id;sensor_type;location;lat;lon;timestamp;P1;durP1;ratioP1;P2;durP2;ratioP2
43801;SDS011;29429;51.074;13.764;2022-09-09T00:04:13;3.35;;;1.80;;
43801;SDS011;29429;51.074;13.764;2022-09-09T00:10:21;3.28;;;1.83;;
43801;SDS011;29429;51.074;13.764;2022-09-09T00:21:38;4.38;;;1.50;;
43801;SDS011;29429;51.074;13.764;2022-09-09T00:24:32;4.05;;;1.70;;
43801;SDS011;29429;51.074;13.764;2022-09-09T00:27:23;2.80;;;1.67;;
43801;SDS011;29429;51.074;13.764;2022-09-09T00:32:52;2.65;;;1.58;;
43801;SDS011;29429;51.074;13.764;2022-09-09T00:35:36;6.25;;;1.70;;
43801;SDS011;29429;51.074;13.764;2022-09-09T00:41:03;1.90;;;1.65;;
43801;SDS011;29429;51.074;13.764;2022-09-09T00:44:36;2.38;;;1.60;;
43801;SDS011;29429;51.074;13.764;2022-09-09T00:58:53;4.32;;;1.70;;
43801;SDS011;29429;51.074;13.764;2022-09-09T01:02:07;4.32;;;1.67;;
43801;SDS011;29429;51.074;13.764;2022-09-09T01:04:51;3.97;;;1.60;;
43801;SDS011;29429;51.074;13.764;2022-09-09T01:07:18;2.17;;;1.52;;
43801;SDS011;29429;51.074;13.764;2022-09-09T01:09:58;6.15;;;1.63;;
43801;SDS011;29429;51.074;13.764;2022-09-09T01:12:42;1.58;;;1.38;;
43801;SDS011;29429;51.074;13.764;2022-09-09T01:15:25;2.80;;;1.40;;
43801;SDS011;29429;51.074;13.764;2022-09-09T01:17:58;3.08;;;1.40;;
43801;SDS011;29429;51.074;13.764;2022-09-09T01:27:15;4.80;;;1.50;;
43801;SDS011;29429;51.074;13.764;2022-09-09T01:29:46;3.92;;;1.70;;
43801;SDS011;29429;51.074;13.764;2022-09-09T01:38:06;3.58;;;1.42;;
43801;SDS011;29429;51.074;13.764;2022-09-09T01:40:34;4.15;;;1.52;;
43801;SDS011;29429;51.074;13.764;2022-09-09T01:43:02;2.03;;;1.60;;
43801;SDS011;29429;51.074;13.764;2022-09-09T01:45:30;3.67;;;1.50;;
43801;SDS011;29429;51.074;13.764;2022-09-09T01:47:57;3.42;;;1.42;;
43801;SDS011;29429;51.074;13.764;2022-09-09T01:50:50;3.90;;;1.45;;
43801;SDS011;29429;51.074;13.764;2022-09-09T01:53:18;5.35;;;1.40;;
43801;SDS011;29429;51.074;13.764;2022-09-09T02:10:23;4.50;;;1.33;;
43801;SDS011;29429;51.074;13.764;2022-09-09T02:13:12;3.60;;;1.55;;
43801;SDS011;29429;51.074;13.764;2022-09-09T02:15:51;2.88;;;1.42;;
43801;SDS011;29429;51.074;13.764;2022-09-09T02:18:28;3.00;;;1.45;;
43801;SDS011;29429;51.074;13.764;2022-09-09T02:21:29;3.08;;;1.30;;
43801;SDS011;29429;51.074;13.764;2022-09-09T02:23:59;4.38;;;1.52;;
43801;SDS011;29429;51.074;13.764;2022-09-09T02:26:37;5.13;;;2.28;;
43801;SDS011;29429;51.074;13.764;2022-09-09T02:29:12;2.53;;;1.85;;
43801;SDS011;29429;51.074;13.764;2022-09-09T02:31:45;3.45;;;1.42;;
43801;SDS011;29429;51.074;13.764;2022-09-09T02:34:20;3.67;;;1.48;;
43801;SDS011;29429;51.074;13.764;2022-09-09T02:36:50;10.10;;;1.90;;
43801;SDS011;29429;51.074;13.764;2022-09-09T02:39:23;1.88;;;1.20;;
43801;SDS011;29429;51.074;13.764;2022-09-09T02:41:51;6.22;;;1.73;;
43801;SDS011;29429;51.074;13.764;2022-09-09T02:44:26;6.38;;;1.70;;
43801;SDS011;29429;51.074;13.764;2022-09-09T02:53:09;3.03;;;1.50;;
43801;SDS011;29429;51.074;13.764;2022-09-09T02:55:49;4.53;;;1.88;;
43801;SDS011;29429;51.074;13.764;2022-09-09T02:58:22;3.03;;;1.90;;
43801;SDS011;29429;51.074;13.764;2022-09-09T03:00:57;6.70;;;2.90;;
43801;SDS011;29429;51.074;13.764;2022-09-09T03:03:28;6.88;;;2.13;;
43801;SDS011;29429;51.074;13.764;2022-09-09T03:05:57;3.65;;;1.50;;
43801;SDS011;29429;51.074;13.764;2022-09-09T03:08:26;2.80;;;1.73;;
43801;SDS011;29429;51.074;13.764;2022-09-09T03:10:55;6.07;;;1.70;;
43801;SDS011;29429;51.074;13.764;2022-09-09T03:13:30;5.60;;;1.92;;
43801;SDS011;29429;51.074;13.764;2022-09-09T03:15:57;4.75;;;1.95;;
43801;SDS011;29429;51.074;13.764;2022-09-09T03:18:24;6.20;;;1.90;;
43801;SDS011;29429;51.074;13.764;2022-09-09T03:20:53;5.47;;;1.88;;
43801;SDS011;29429;51.074;13.764;2022-09-09T03:23:20;3.13;;;1.85;;
43801;SDS011;29429;51.074;13.764;2022-09-09T03:25:48;3.88;;;1.55;;
43801;SDS011;29429;51.074;13.764;2022-09-09T03:28:23;4.53;;;1.73;;
43801;SDS011;29429;51.074;13.764;2022-09-09T03:30:59;3.83;;;1.90;;
43801;SDS011;29429;51.074;13.764;2022-09-09T03:33:35;6.35;;;2.00;;
43801;SDS011;29429;51.074;13.764;2022-09-09T03:36:04;4.15;;;2.03;;
43801;SDS011;29429;51.074;13.764;2022-09-09T03:38:33;4.00;;;2.28;;
43801;SDS011;29429;51.074;13.764;2022-09-09T03:41:01;6.80;;;2.25;;
43801;SDS011;29429;51.074;13.764;2022-09-09T03:43:29;4.35;;;2.78;;
43801;SDS011;29429;51.074;13.764;2022-09-09T03:45:56;4.63;;;2.00;;
43801;SDS011;29429;51.074;13.764;2022-09-09T03:48:25;3.20;;;1.70;;
43801;SDS011;29429;51.074;13.764;2022-09-09T03:50:55;7.15;;;2.25;;
43801;SDS011;29429;51.074;13.764;2022-09-09T03:53:24;6.65;;;2.55;;
43801;SDS011;29429;51.074;13.764;2022-09-09T03:55:52;3.15;;;2.10;;
43801;SDS011;29429;51.074;13.764;2022-09-09T03:58:24;6.55;;;2.00;;
43801;SDS011;29429;51.074;13.764;2022-09-09T04:00:58;7.63;;;2.08;;
43801;SDS011;29429;51.074;13.764;2022-09-09T04:03:32;4.90;;;2.63;;
43801;SDS011;29429;51.074;13.764;2022-09-09T04:06:00;3.88;;;2.00;;
43801;SDS011;29429;51.074;13.764;2022-09-09T04:08:30;5.07;;;2.03;;
43801;SDS011;29429;51.074;13.764;2022-09-09T04:10:59;3.35;;;1.85;;
43801;SDS011;29429;51.074;13.764;2022-09-09T04:13:28;3.92;;;2.20;;
43801;SDS011;29429;51.074;13.764;2022-09-09T04:15:57;4.65;;;1.88;;
43801;SDS011;29429;51.074;13.764;2022-09-09T04:18:26;4.75;;;1.80;;
43801;SDS011;29429;51.074;13.764;2022-09-09T04:20:55;6.68;;;2.35;;
43801;SDS011;29429;51.074;13.764;2022-09-09T04:23:26;3.75;;;2.13;;
43801;SDS011;29429;51.074;13.764;2022-09-09T04:25:58;6.90;;;2.42;;
43801;SDS011;29429;51.074;13.764;2022-09-09T04:28:31;6.03;;;2.08;;
43801;SDS011;29429;51.074;13.764;2022-09-09T04:31:07;5.05;;;2.42;;
43801;SDS011;29429;51.074;13.764;2022-09-09T04:33:41;3.92;;;2.00;;
43801;SDS011;29429;51.074;13.764;2022-09-09T04:36:09;3.58;;;2.13;;
43801;SDS011;29429;51.074;13.764;2022-09-09T04:38:36;7.28;;;2.10;;
43801;SDS011;29429;51.074;13.764;2022-09-09T04:41:04;3.60;;;2.55;;
43801;SDS011;29429;51.074;13.764;2022-09-09T04:43:34;4.50;;;2.08;;
43801;SDS011;29429;51.074;13.764;2022-09-09T04:46:04;5.95;;;2.10;;
43801;SDS011;29429;51.074;13.764;2022-09-09T04:48:32;4.05;;;2.47;;
43801;SDS011;29429;51.074;13.764;2022-09-09T04:51:02;4.32;;;2.40;;
43801;SDS011;29429;51.074;13.764;2022-09-09T04:53:32;2.85;;;1.80;;
43801;SDS011;29429;51.074;13.764;2022-09-09T04:56:24;3.20;;;2.20;;
43801;SDS011;29429;51.074;13.764;2022-09-09T04:58:54;3.63;;;1.75;;
43801;SDS011;29429;51.074;13.764;2022-09-09T05:01:26;6.03;;;2.42;;
43801;SDS011;29429;51.074;13.764;2022-09-09T05:04:01;5.83;;;2.03;;
43801;SDS011;29429;51.074;13.764;2022-09-09T05:06:31;6.63;;;2.20;;
43801;SDS011;29429;51.074;13.764;2022-09-09T05:08:59;4.50;;;2.20;;
43801;SDS011;29429;51.074;13.764;2022-09-09T05:11:29;3.70;;;2.20;;
43801;SDS011;29429;51.074;13.764;2022-09-09T05:14:14;5.57;;;2.00;;
43801;SDS011;29429;51.074;13.764;2022-09-09T05:16:41;8.80;;;2.38;;
43801;SDS011;29429;51.074;13.764;2022-09-09T05:19:10;5.18;;;2.20;;
43801;SDS011;29429;51.074;13.764;2022-09-09T05:21:43;6.78;;;1.92;;
43801;SDS011;29429;51.074;13.764;2022-09-09T05:24:11;5.43;;;2.20;;
43801;SDS011;29429;51.074;13.764;2022-09-09T05:26:39;3.85;;;1.80;;
43801;SDS011;29429;51.074;13.764;2022-09-09T05:29:06;4.30;;;2.20;;
43801;SDS011;29429;51.074;13.764;2022-09-09T05:31:34;2.25;;;1.85;;
43801;SDS011;29429;51.074;13.764;2022-09-09T05:34:05;3.47;;;1.95;;
43801;SDS011;29429;51.074;13.764;2022-09-09T05:36:33;3.65;;;1.90;;
43801;SDS011;29429;51.074;13.764;2022-09-09T05:39:00;3.92;;;1.98;;
43801;SDS011;29429;51.074;13.764;2022-09-09T05:41:30;3.63;;;2.17;;
43801;SDS011;29429;51.074;13.764;2022-09-09T05:44:07;2.60;;;2.10;;
43801;SDS011;29429;51.074;13.764;2022-09-09T05:46:37;2.63;;;1.75;;
43801;SDS011;29429;51.074;13.764;2022-09-09T05:49:04;2.70;;;2.05;;
43801;SDS011;29429;51.074;13.764;2022-09-09T05:51:33;3.42;;;1.80;;
43801;SDS011;29429;51.074;13.764;2022-09-09T05:54:05;6.15;;;1.80;;
43801;SDS011;29429;51.074;13.764;2022-09-09T05:56:36;4.35;;;2.00;;
43801;SDS011;29429;51.074;13.764;2022-09-09T05:59:05;5.70;;;1.88;;
43801;SDS011;29429;51.074;13.764;2022-09-09T06:01:39;3.33;;;2.00;;
43801;SDS011;29429;51.074;13.764;2022-09-09T06:04:20;3.42;;;1.48;;
43801;SDS011;29429;51.074;13.764;2022-09-09T06:06:48;3.47;;;2.00;;
43801;SDS011;29429;51.074;13.764;2022-09-09T06:09:18;6.30;;;1.85;;
43801;SDS011;29429;51.074;13.764;2022-09-09T06:11:44;2.30;;;1.55;;
43801;SDS011;29429;51.074;13.764;2022-09-09T06:14:13;3.53;;;1.70;;
43801;SDS011;29429;51.074;13.764;2022-09-09T06:16:44;2.90;;;1.33;;
43801;SDS011;29429;51.074;13.764;2022-09-09T06:19:22;4.15;;;2.10;;
43801;SDS011;29429;51.074;13.764;2022-09-09T06:21:54;2.28;;;1.55;;
43801;SDS011;29429;51.074;13.764;2022-09-09T06:24:21;2.97;;;1.85;;
43801;SDS011;29429;51.074;13.764;2022-09-09T06:26:49;2.05;;;1.30;;
43801;SDS011;29429;51.074;13.764;2022-09-09T06:29:21;3.63;;;1.58;;
43801;SDS011;29429;51.074;13.764;2022-09-09T06:31:49;3.88;;;1.60;;
43801;SDS011;29429;51.074;13.764;2022-09-09T06:34:21;3.65;;;1.30;;
43801;SDS011;29429;51.074;13.764;2022-09-09T06:36:56;2.28;;;1.63;;
43801;SDS011;29429;51.074;13.764;2022-09-09T06:39:28;2.10;;;1.50;;
43801;SDS011;29429;51.074;13.764;2022-09-09T06:42:00;2.30;;;1.10;;
43801;SDS011;29429;51.074;13.764;2022-09-09T06:44:48;2.60;;;1.40;;
43801;SDS011;29429;51.074;13.764;2022-09-09T06:47:22;3.00;;;1.50;;
43801;SDS011;29429;51.074;13.764;2022-09-09T06:49:51;2.83;;;1.42;;
43801;SDS011;29429;51.074;13.764;2022-09-09T06:52:19;2.05;;;1.30;;
43801;SDS011;29429;51.074;13.764;2022-09-09T06:54:46;2.85;;;1.70;;
43801;SDS011;29429;51.074;13.764;2022-09-09T06:57:14;4.72;;;1.52;;
43801;SDS011;29429;51.074;13.764;2022-09-09T07:00:05;2.55;;;1.30;;
43801;SDS011;29429;51.074;13.764;2022-09-09T07:02:34;3.10;;;1.40;;
43801;SDS011;29429;51.074;13.764;2022-09-09T07:05:06;3.55;;;1.67;;
43801;SDS011;29429;51.074;13.764;2022-09-09T07:07:34;3.63;;;1.48;;
43801;SDS011;29429;51.074;13.764;2022-09-09T07:10:02;3.60;;;1.30;;
43801;SDS011;29429;51.074;13.764;2022-09-09T07:12:30;2.28;;;1.30;;
43801;SDS011;29429;51.074;13.764;2022-09-09T07:15:02;2.63;;;1.45;;
43801;SDS011;29429;51.074;13.764;2022-09-09T07:17:30;3.03;;;1.30;;
43801;SDS011;29429;51.074;13.764;2022-09-09T07:19:58;3.15;;;1.35;;
43801;SDS011;29429;51.074;13.764;2022-09-09T07:22:27;4.15;;;1.23;;
43801;SDS011;29429;51.074;13.764;2022-09-09T07:24:55;3.88;;;1.35;;
43801;SDS011;29429;51.074;13.764;2022-09-09T07:27:23;8.07;;;1.40;;
43801;SDS011;29429;51.074;13.764;2022-09-09T07:29:50;5.70;;;1.77;;
43801;SDS011;29429;51.074;13.764;2022-09-09T07:32:20;2.03;;;0.82;;
43801;SDS011;29429;51.074;13.764;2022-09-09T07:34:47;5.93;;;1.45;;
43801;SDS011;29429;51.074;13.764;2022-09-09T07:37:16;2.88;;;0.98;;
43801;SDS011;29429;51.074;13.764;2022-09-09T07:39:44;3.97;;;1.73;;
43801;SDS011;29429;51.074;13.764;2022-09-09T07:42:12;2.33;;;0.95;;
43801;SDS011;29429;51.074;13.764;2022-09-09T07:44:40;2.35;;;0.90;;
43801;SDS011;29429;51.074;13.764;2022-09-09T07:47:12;3.33;;;0.80;;
43801;SDS011;29429;51.074;13.764;2022-09-09T07:49:45;3.58;;;0.90;;
43801;SDS011;29429;51.074;13.764;2022-09-09T07:52:16;2.65;;;0.98;;
43801;SDS011;29429;51.074;13.764;2022-09-09T07:54:49;3.17;;;0.98;;
43801;SDS011;29429;51.074;13.764;2022-09-09T07:57:16;2.53;;;0.85;;
43801;SDS011;29429;51.074;13.764;2022-09-09T07:59:45;2.47;;;0.93;;
43801;SDS011;29429;51.074;13.764;2022-09-09T08:02:12;2.05;;;0.90;;
43801;SDS011;29429;51.074;13.764;2022-09-09T08:04:40;2.78;;;0.95;;
43801;SDS011;29429;51.074;13.764;2022-09-09T08:07:11;2.47;;;0.77;;
43801;SDS011;29429;51.074;13.764;2022-09-09T08:09:44;2.95;;;1.00;;
43801;SDS011;29429;51.074;13.764;2022-09-09T08:12:17;3.05;;;0.80;;
43801;SDS011;29429;51.074;13.764;2022-09-09T08:14:45;3.05;;;1.02;;
43801;SDS011;29429;51.074;13.764;2022-09-09T08:17:12;2.13;;;0.80;;
43801;SDS011;29429;51.074;13.764;2022-09-09T08:19:39;2.50;;;1.08;;
43801;SDS011;29429;51.074;13.764;2022-09-09T08:22:11;2.88;;;1.00;;
43801;SDS011;29429;51.074;13.764;2022-09-09T08:24:39;1.38;;;0.80;;
43801;SDS011;29429;51.074;13.764;2022-09-09T08:27:07;5.63;;;2.05;;
43801;SDS011;29429;51.074;13.764;2022-09-09T08:29:37;2.83;;;1.00;;
43801;SDS011;29429;51.074;13.764;2022-09-09T08:32:04;3.20;;;1.10;;
43801;SDS011;29429;51.074;13.764;2022-09-09T08:34:32;3.28;;;1.10;;
43801;SDS011;29429;51.074;13.764;2022-09-09T08:37:04;1.92;;;0.82;;
43801;SDS011;29429;51.074;13.764;2022-09-09T08:39:36;4.18;;;1.30;;
43801;SDS011;29429;51.074;13.764;2022-09-09T08:42:24;1.80;;;0.90;;
43801;SDS011;29429;51.074;13.764;2022-09-09T08:45:09;2.05;;;1.60;;
43801;SDS011;29429;51.074;13.764;2022-09-09T08:51:09;2.47;;;1.10;;
43801;SDS011;29429;51.074;13.764;2022-09-09T08:53:43;3.28;;;1.13;;
43801;SDS011;29429;51.074;13.764;2022-09-09T08:56:25;2.22;;;1.40;;
43801;SDS011;29429;51.074;13.764;2022-09-09T08:58:59;3.78;;;1.30;;
43801;SDS011;29429;51.074;13.764;2022-09-09T09:07:15;3.08;;;1.08;;
43801;SDS011;29429;51.074;13.764;2022-09-09T09:13:33;3.38;;;1.20;;
43801;SDS011;29429;51.074;13.764;2022-09-09T09:16:38;4.63;;;1.52;;
43801;SDS011;29429;51.074;13.764;2022-09-09T09:19:21;2.22;;;1.20;;
43801;SDS011;29429;51.074;13.764;2022-09-09T09:22:26;1.88;;;0.98;;
43801;SDS011;29429;51.074;13.764;2022-09-09T09:27:57;3.65;;;1.20;;
43801;SDS011;29429;51.074;13.764;2022-09-09T09:30:54;2.88;;;1.02;;
43801;SDS011;29429;51.074;13.764;2022-09-09T09:33:38;2.50;;;1.17;;
43801;SDS011;29429;51.074;13.764;2022-09-09T09:36:12;1.90;;;1.48;;
43801;SDS011;29429;51.074;13.764;2022-09-09T09:38:56;3.90;;;1.35;;
43801;SDS011;29429;51.074;13.764;2022-09-09T09:41:47;4.78;;;1.38;;
43801;SDS011;29429;51.074;13.764;2022-09-09T09:44:24;3.88;;;1.00;;
43801;SDS011;29429;51.074;13.764;2022-09-09T09:47:12;3.95;;;0.98;;
43801;SDS011;29429;51.074;13.764;2022-09-09T09:50:00;2.90;;;0.85;;
43801;SDS011;29429;51.074;13.764;2022-09-09T09:52:58;5.10;;;1.23;;
43801;SDS011;29429;51.074;13.764;2022-09-09T09:55:44;2.75;;;1.02;;
43801;SDS011;29429;51.074;13.764;2022-09-09T09:58:29;3.13;;;1.02;;
43801;SDS011;29429;51.074;13.764;2022-09-09T10:01:00;3.83;;;1.10;;
43801;SDS011;29429;51.074;13.764;2022-09-09T10:03:30;4.28;;;0.93;;
43801;SDS011;29429;51.074;13.764;2022-09-09T10:06:05;2.28;;;0.60;;
43801;SDS011;29429;51.074;13.764;2022-09-09T10:08:34;2.75;;;1.17;;
43801;SDS011;29429;51.074;13.764;2022-09-09T10:26:22;1.75;;;0.50;;
43801;SDS011;29429;51.074;13.764;2022-09-09T10:46:45;2.15;;;0.70;;
43801;SDS011;29429;51.074;13.764;2022-09-09T10:52:40;3.00;;;0.80;;
43801;SDS011;29429;51.074;13.764;2022-09-09T10:55:45;3.03;;;0.75;;
43801;SDS011;29429;51.074;13.764;2022-09-09T10:59:04;2.38;;;0.88;;
43801;SDS011;29429;51.074;13.764;2022-09-09T11:01:21;3.83;;;0.90;;
43801;SDS011;29429;51.074;13.764;2022-09-09T11:04:02;2.58;;;0.82;;
43801;SDS011;29429;51.074;13.764;2022-09-09T11:06:44;3.15;;;0.95;;
43801;SDS011;29429;51.074;13.764;2022-09-09T11:09:19;7.68;;;1.25;;
43801;SDS011;29429;51.074;13.764;2022-09-09T11:11:57;1.83;;;0.60;;
43801;SDS011;29429;51.074;13.764;2022-09-09T11:14:34;2.35;;;0.70;;
43801;SDS011;29429;51.074;13.764;2022-09-09T11:17:15;2.55;;;1.00;;
43801;SDS011;29429;51.074;13.764;2022-09-09T11:19:53;2.97;;;0.80;;
43801;SDS011;29429;51.074;13.764;2022-09-09T11:25:34;2.45;;;0.65;;
43801;SDS011;29429;51.074;13.764;2022-09-09T11:36:35;3.13;;;0.80;;
43801;SDS011;29429;51.074;13.764;2022-09-09T11:42:42;3.17;;;0.82;;
43801;SDS011;29429;51.074;13.764;2022-09-09T11:45:31;2.65;;;0.70;;
43801;SDS011;29429;51.074;13.764;2022-09-09T11:48:01;2.00;;;0.80;;
43801;SDS011;29429;51.074;13.764;2022-09-09T11:50:33;1.67;;;0.67;;
43801;SDS011;29429;51.074;13.764;2022-09-09T11:53:05;2.85;;;0.95;;
43801;SDS011;29429;51.074;13.764;2022-09-09T11:56:00;2.92;;;0.88;;
43801;SDS011;29429;51.074;13.764;2022-09-09T11:59:02;2.72;;;0.80;;
43801;SDS011;29429;51.074;13.764;2022-09-09T12:01:54;3.08;;;0.85;;
43801;SDS011;29429;51.074;13.764;2022-09-09T12:10:26;2.00;;;0.80;;
43801;SDS011;29429;51.074;13.764;2022-09-09T12:15:50;3.33;;;1.15;;
43801;SDS011;29429;51.074;13.764;2022-09-09T12:18:33;3.00;;;0.70;;
43801;SDS011;29429;51.074;13.764;2022-09-09T12:21:07;3.13;;;1.00;;
43801;SDS011;29429;51.074;13.764;2022-09-09T12:24:30;2.53;;;0.87;;
43801;SDS011;29429;51.074;13.764;2022-09-09T12:27:13;2.53;;;0.80;;
43801;SDS011;29429;51.074;13.764;2022-09-09T12:30:12;1.67;;;1.00;;
43801;SDS011;29429;51.074;13.764;2022-09-09T12:32:43;1.42;;;0.70;;
43801;SDS011;29429;51.074;13.764;2022-09-09T12:37:54;3.70;;;1.10;;
43801;SDS011;29429;51.074;13.764;2022-09-09T12:40:28;5.43;;;1.67;;
43801;SDS011;29429;51.074;13.764;2022-09-09T12:43:02;3.08;;;1.30;;
43801;SDS011;29429;51.074;13.764;2022-09-09T12:45:48;2.38;;;0.85;;
43801;SDS011;29429;51.074;13.764;2022-09-09T12:48:31;2.88;;;1.20;;
43801;SDS011;29429;51.074;13.764;2022-09-09T12:51:05;2.53;;;0.90;;
43801;SDS011;29429;51.074;13.764;2022-09-09T12:53:45;4.18;;;1.23;;
43801;SDS011;29429;51.074;13.764;2022-09-09T12:56:19;4.13;;;1.20;;
43801;SDS011;29429;51.074;13.764;2022-09-09T12:58:52;3.30;;;1.10;;
43801;SDS011;29429;51.074;13.764;2022-09-09T13:01:30;2.20;;;0.98;;
43801;SDS011;29429;51.074;13.764;2022-09-09T13:04:02;2.55;;;1.10;;
43801;SDS011;29429;51.074;13.764;2022-09-09T13:06:31;2.90;;;0.95;;
43801;SDS011;29429;51.074;13.764;2022-09-09T13:08:59;1.58;;;0.80;;
43801;SDS011;29429;51.074;13.764;2022-09-09T13:11:39;1.88;;;0.90;;
43801;SDS011;29429;51.074;13.764;2022-09-09T13:14:19;1.58;;;0.82;;
43801;SDS011;29429;51.074;13.764;2022-09-09T13:17:02;2.58;;;1.25;;
43801;SDS011;29429;51.074;13.764;2022-09-09T13:19:34;2.00;;;1.10;;
43801;SDS011;29429;51.074;13.764;2022-09-09T13:22:16;2.35;;;0.98;;
43801;SDS011;29429;51.074;13.764;2022-09-09T13:25:27;3.10;;;1.45;;
43801;SDS011;29429;51.074;13.764;2022-09-09T13:27:57;1.92;;;0.90;;
43801;SDS011;29429;51.074;13.764;2022-09-09T13:30:32;2.67;;;1.10;;
43801;SDS011;29429;51.074;13.764;2022-09-09T13:35:47;2.08;;;1.05;;
43801;SDS011;29429;51.074;13.764;2022-09-09T13:38:28;2.92;;;1.00;;
43801;SDS011;29429;51.074;13.764;2022-09-09T13:40:59;2.28;;;0.93;;
43801;SDS011;29429;51.074;13.764;2022-09-09T13:43:31;2.30;;;0.80;;
43801;SDS011;29429;51.074;13.764;2022-09-09T13:46:33;1.23;;;0.63;;
43801;SDS011;29429;51.074;13.764;2022-09-09T13:54:15;4.82;;;1.10;;
43801;SDS011;29429;51.074;13.764;2022-09-09T13:56:45;2.05;;;1.00;;
43801;SDS011;29429;51.074;13.764;2022-09-09T13:59:17;3.38;;;1.48;;
43801;SDS011;29429;51.074;13.764;2022-09-09T14:01:46;2.38;;;1.10;;
43801;SDS011;29429;51.074;13.764;2022-09-09T14:04:15;2.70;;;1.30;;
43801;SDS011;29429;51.074;13.764;2022-09-09T14:06:42;2.60;;;0.98;;
43801;SDS011;29429;51.074;13.764;2022-09-09T14:09:11;1.80;;;0.85;;
43801;SDS011;29429;51.074;13.764;2022-09-09T14:11:48;3.55;;;1.75;;
43801;SDS011;29429;51.074;13.764;2022-09-09T14:14:14;3.22;;;1.70;;
43801;SDS011;29429;51.074;13.764;2022-09-09T14:16:41;3.45;;;1.30;;
43801;SDS011;29429;51.074;13.764;2022-09-09T14:19:09;2.92;;;1.05;;
43801;SDS011;29429;51.074;13.764;2022-09-09T14:21:36;2.10;;;0.90;;
43801;SDS011;29429;51.074;13.764;2022-09-09T14:24:03;2.67;;;0.70;;
43801;SDS011;29429;51.074;13.764;2022-09-09T14:26:30;2.65;;;1.17;;
43801;SDS011;29429;51.074;13.764;2022-09-09T14:28:58;1.30;;;0.80;;
43801;SDS011;29429;51.074;13.764;2022-09-09T14:31:25;4.25;;;1.40;;
43801;SDS011;29429;51.074;13.764;2022-09-09T14:33:53;1.48;;;0.90;;
43801;SDS011;29429;51.074;13.764;2022-09-09T14:36:20;1.90;;;0.75;;
43801;SDS011;29429;51.074;13.764;2022-09-09T14:38:47;2.47;;;1.10;;
43801;SDS011;29429;51.074;13.764;2022-09-09T14:41:15;2.92;;;0.88;;
43801;SDS011;29429;51.074;13.764;2022-09-09T14:43:45;2.92;;;0.70;;
43801;SDS011;29429;51.074;13.764;2022-09-09T14:46:14;1.98;;;0.80;;
43801;SDS011;29429;51.074;13.764;2022-09-09T14:48:43;3.17;;;0.98;;
43801;SDS011;29429;51.074;13.764;2022-09-09T14:51:12;1.65;;;0.70;;
43801;SDS011;29429;51.074;13.764;2022-09-09T14:53:51;3.15;;;1.05;;
43801;SDS011;29429;51.074;13.764;2022-09-09T14:56:25;2.83;;;1.00;;
43801;SDS011;29429;51.074;13.764;2022-09-09T14:58:56;3.28;;;1.00;;
43801;SDS011;29429;51.074;13.764;2022-09-09T15:01:27;2.63;;;0.98;;
43801;SDS011;29429;51.074;13.764;2022-09-09T15:03:57;2.47;;;1.13;;
43801;SDS011;29429;51.074;13.764;2022-09-09T15:06:30;2.20;;;0.98;;
43801;SDS011;29429;51.074;13.764;2022-09-09T15:09:00;3.15;;;0.73;;
43801;SDS011;29429;51.074;13.764;2022-09-09T15:11:29;2.30;;;0.90;;
43801;SDS011;29429;51.074;13.764;2022-09-09T15:14:04;2.53;;;1.00;;
43801;SDS011;29429;51.074;13.764;2022-09-09T15:16:33;2.25;;;0.90;;
43801;SDS011;29429;51.074;13.764;2022-09-09T15:19:02;3.60;;;1.50;;
43801;SDS011;29429;51.074;13.764;2022-09-09T15:21:33;3.40;;;1.10;;
43801;SDS011;29429;51.074;13.764;2022-09-09T15:24:04;2.47;;;1.00;;
43801;SDS011;29429;51.074;13.764;2022-09-09T15:26:34;2.95;;;0.73;;
43801;SDS011;29429;51.074;13.764;2022-09-09T15:29:05;1.75;;;0.75;;
43801;SDS011;29429;51.074;13.764;2022-09-09T15:31:34;2.08;;;0.80;;
43801;SDS011;29429;51.074;13.764;2022-09-09T15:34:06;3.00;;;0.70;;
43801;SDS011;29429;51.074;13.764;2022-09-09T15:39:13;2.13;;;1.05;;
43801;SDS011;29429;51.074;13.764;2022-09-09T15:41:43;2.45;;;0.85;;
43801;SDS011;29429;51.074;13.764;2022-09-09T15:44:12;3.50;;;1.08;;
43801;SDS011;29429;51.074;13.764;2022-09-09T15:49:16;3.55;;;1.15;;
43801;SDS011;29429;51.074;13.764;2022-09-09T15:51:55;2.42;;;0.95;;
43801;SDS011;29429;51.074;13.764;2022-09-09T15:54:25;2.72;;;1.00;;
43801;SDS011;29429;51.074;13.764;2022-09-09T15:56:56;3.40;;;1.42;;
43801;SDS011;29429;51.074;13.764;2022-09-09T15:59:27;2.63;;;1.00;;
43801;SDS011;29429;51.074;13.764;2022-09-09T16:01:57;2.88;;;0.90;;
43801;SDS011;29429;51.074;13.764;2022-09-09T16:04:26;1.85;;;0.80;;
43801;SDS011;29429;51.074;13.764;2022-09-09T16:07:00;5.40;;;1.10;;
43801;SDS011;29429;51.074;13.764;2022-09-09T16:09:32;4.32;;;1.02;;
43801;SDS011;29429;51.074;13.764;2022-09-09T16:12:00;1.70;;;0.80;;
43801;SDS011;29429;51.074;13.764;2022-09-09T16:14:33;3.10;;;1.10;;
43801;SDS011;29429;51.074;13.764;2022-09-09T16:17:02;1.85;;;0.80;;
43801;SDS011;29429;51.074;13.764;2022-09-09T16:19:31;1.80;;;0.80;;
43801;SDS011;29429;51.074;13.764;2022-09-09T16:21:59;2.63;;;1.20;;
43801;SDS011;29429;51.074;13.764;2022-09-09T16:24:26;2.70;;;1.08;;
43801;SDS011;29429;51.074;13.764;2022-09-09T16:26:53;3.05;;;1.15;;
43801;SDS011;29429;51.074;13.764;2022-09-09T16:29:21;2.70;;;1.00;;
43801;SDS011;29429;51.074;13.764;2022-09-09T16:31:49;2.08;;;1.10;;
43801;SDS011;29429;51.074;13.764;2022-09-09T16:34:17;3.10;;;1.10;;
43801;SDS011;29429;51.074;13.764;2022-09-09T16:36:45;1.83;;;1.05;;
43801;SDS011;29429;51.074;13.764;2022-09-09T16:39:15;2.10;;;1.02;;
43801;SDS011;29429;51.074;13.764;2022-09-09T16:41:46;3.03;;;0.93;;
43801;SDS011;29429;51.074;13.764;2022-09-09T16:44:15;1.40;;;0.95;;
43801;SDS011;29429;51.074;13.764;2022-09-09T16:46:45;1.50;;;0.90;;
43801;SDS011;29429;51.074;13.764;2022-09-09T16:49:15;2.13;;;1.00;;
43801;SDS011;29429;51.074;13.764;2022-09-09T16:51:46;3.35;;;1.52;;
43801;SDS011;29429;51.074;13.764;2022-09-09T16:54:19;1.83;;;1.13;;
43801;SDS011;29429;51.074;13.764;2022-09-09T16:56:47;2.67;;;1.08;;
43801;SDS011;29429;51.074;13.764;2022-09-09T16:59:15;2.97;;;1.00;;
43801;SDS011;29429;51.074;13.764;2022-09-09T17:01:45;2.60;;;0.80;;
43801;SDS011;29429;51.074;13.764;2022-09-09T17:04:18;2.72;;;1.10;;
43801;SDS011;29429;51.074;13.764;2022-09-09T17:06:51;3.83;;;0.98;;
43801;SDS011;29429;51.074;13.764;2022-09-09T17:09:20;3.72;;;1.10;;
43801;SDS011;29429;51.074;13.764;2022-09-09T17:11:49;2.83;;;1.17;;
43801;SDS011;29429;51.074;13.764;2022-09-09T17:14:18;2.45;;;0.90;;
43801;SDS011;29429;51.074;13.764;2022-09-09T17:16:47;3.22;;;1.00;;
43801;SDS011;29429;51.074;13.764;2022-09-09T17:19:14;4.07;;;1.25;;
43801;SDS011;29429;51.074;13.764;2022-09-09T17:21:42;3.80;;;1.20;;
43801;SDS011;29429;51.074;13.764;2022-09-09T17:24:29;2.35;;;1.30;;
43801;SDS011;29429;51.074;13.764;2022-09-09T17:26:56;2.78;;;1.20;;
43801;SDS011;29429;51.074;13.764;2022-09-09T17:29:25;2.00;;;1.23;;
43801;SDS011;29429;51.074;13.764;2022-09-09T17:31:52;3.33;;;1.02;;
43801;SDS011;29429;51.074;13.764;2022-09-09T17:34:21;2.78;;;0.95;;
43801;SDS011;29429;51.074;13.764;2022-09-09T17:36:49;2.95;;;1.05;;
43801;SDS011;29429;51.074;13.764;2022-09-09T17:39:16;2.95;;;1.27;;
43801;SDS011;29429;51.074;13.764;2022-09-09T17:41:43;2.92;;;1.10;;
43801;SDS011;29429;51.074;13.764;2022-09-09T17:44:10;5.57;;;2.03;;
43801;SDS011;29429;51.074;13.764;2022-09-09T17:46:38;3.15;;;1.20;;
43801;SDS011;29429;51.074;13.764;2022-09-09T17:49:08;2.38;;;1.15;;